Fairdale, ND (58229)

3:30 PM CDT on September 16, 2014 (GMT -0500)
RAWS HAMPDEN ND US | Change Station
CLOSE
Current Station
Personal Weather Station
Location: Hampden, ND
Elevation: 1582 ft
Nearby Weather Stations

Elev 1582 ft 48.53 °N, 98.62 °W | Updated 32 minutes ago

Clear
Clear
73 °F
Feels Like 76 °F
N
8
Wind Variable Wind from SSW
Gusts 12.0 mph

Today
High -- | Low -- °F
--% Chance of Precip.
Yesterday
High -- | Low -- °F
Precip. -- in
7:11 AM 7:43 PM
Last Quarter, 42% visible
Pressure 29.95 in
Visibility 10.0 miles
Clouds Clear
Heat Index 76 °F
Dew Point 38 °F
Humidity 28%
Rainfall 0.00 in
Snow Depth Not available.
UV 5 out of 12
Pollen 3.70 out of 12
Air Quality Not available.
Flu Activity Not available.
METAR KD55 162015Z AUTO 24006KT 10SM CLR 24/03 A2995 RMK AO2

More Conditions Fewer Conditions

Pressure 29.95 in
Visibility 10.0 miles
Clouds Clear
Heat Index 76 °F
Dew Point 38 °F
Humidity 28%
Rainfall 0.00 in
Snow Depth Not available.
UV 5 out of 12
Pollen 3.70 out of 12
Air Quality Not available.
Flu Activity Not available.
METAR KD55 162015Z AUTO 24006KT 10SM CLR 24/03 A2995 RMK AO2

More Conditions Fewer Conditions

10-Day Weather Forecast

Almanac

Astronomy

Sep. 16, 2014 Rise Set
Actual Time 7:11 AM CDT 7:43 PM CDT
Civil Twilight 6:39 AM CDT 8:14 PM CDT
Nautical Twilight 6:02 AM CDT 8:51 PM CDT
Astronomical Twilight 5:23 AM CDT 9:30 PM CDT
Moon 12:01 AM CDT 3:28 PM CDT
Length of Visible Light 13h 35m
Length of Day
12h 32m
Tomorrow will be 3m 31s shorter.
Last Quarter, 42% of the Moon is Illuminated
Today
Last Quarter
Sep 24
New
Oct 1
First Quarter
Oct 8
Full
Oct 15
Last Quarter

Today's Extremes

State Highs State Lows

Community

WunderPhotos

Upload Photos

1,753,871 photos uploaded!

Nearby

Snow Depth

Station Depth Elevation
No new snow has been reported.

Earthquake Activity

City Distance Mag. Time & Date
No recent earthquake activity has been reported nearby.
Minimum magnitude displayed is 2.5.

Coastal Water Temperatures

Place Temperature
No Stations Reporting

Nearby Weather Stations